createdAt,value
2023-04-18T00:04:15.074Z,5.90
2023-04-18T00:09:17.329Z,5.90
2023-04-18T00:14:21.007Z,5.60
2023-04-18T00:19:23.626Z,5.30
2023-04-18T00:24:25.796Z,5.90
2023-04-18T00:29:28.049Z,5.90
2023-04-18T00:34:29.979Z,6.20
2023-04-18T00:39:31.767Z,5.90
2023-04-18T00:44:33.921Z,7.00
2023-04-18T00:49:35.827Z,6.80
2023-04-18T00:54:39.015Z,7.10
2023-04-18T00:59:41.341Z,7.60
2023-04-18T01:04:44.093Z,6.60
2023-04-18T01:09:46.342Z,6.40
2023-04-18T01:14:48.289Z,8.00
2023-04-18T01:19:51.576Z,8.20
2023-04-18T01:24:53.672Z,6.90
2023-04-18T01:29:55.661Z,6.70
2023-04-18T01:34:57.735Z,9.30
2023-04-18T01:40:00.134Z,7.90
2023-04-18T01:45:02.632Z,6.60
2023-04-18T01:50:05.133Z,5.50
2023-04-18T01:55:07.637Z,6.90
2023-04-18T02:00:11.478Z,6.30
2023-04-18T02:05:19.278Z,5.70
2023-04-18T02:10:21.272Z,6.30
2023-04-18T02:15:24.624Z,6.70
2023-04-18T02:20:28.579Z,5.80
2023-04-18T02:25:31.126Z,7.10
2023-04-18T02:30:32.950Z,8.40
2023-04-18T02:35:38.564Z,8.50
2023-04-18T02:40:40.649Z,6.90
2023-04-18T02:45:43.030Z,7.90
2023-04-18T02:50:45.062Z,6.10
2023-04-18T02:55:47.588Z,7.20
2023-04-18T03:00:53.149Z,6.60
2023-04-18T03:06:15.951Z,6.50
2023-04-18T03:11:18.175Z,5.30
2023-04-18T03:16:20.669Z,6.50
2023-04-18T03:21:24.083Z,6.60
2023-04-18T03:26:26.911Z,4.90
2023-04-18T03:31:29.418Z,5.90
2023-04-18T03:36:31.662Z,6.00
2023-04-18T03:41:34.118Z,6.90
2023-04-18T03:46:37.749Z,9.80
2023-04-18T03:51:48.072Z,9.90
2023-04-18T03:56:50.582Z,7.00
2023-04-18T04:01:53.575Z,8.60
2023-04-18T04:06:56.027Z,8.40
2023-04-18T04:11:57.877Z,10.70
2023-04-18T04:17:01.122Z,9.70
2023-04-18T04:22:04.019Z,9.60
2023-04-18T04:27:08.192Z,10.10
2023-04-18T04:32:11.035Z,11.10
2023-04-18T04:37:19.808Z,11.90
2023-04-18T04:42:32.373Z,12.50
2023-04-18T04:47:40.361Z,14.50
2023-04-18T04:52:42.755Z,14.50
2023-04-18T04:57:45.659Z,15.00
2023-04-18T05:03:00.106Z,15.80
2023-04-18T05:08:03.110Z,16.30
2023-04-18T05:13:05.513Z,16.00
2023-04-18T05:18:07.701Z,15.40
2023-04-18T05:23:10.081Z,16.80
2023-04-18T05:28:11.980Z,17.80
2023-04-18T05:33:13.853Z,17.90
2023-04-18T05:38:16.925Z,17.50
2023-04-18T05:43:19.787Z,19.10
2023-04-18T05:48:23.469Z,18.80
2023-04-18T05:53:25.806Z,19.30
2023-04-18T05:58:28.929Z,17.60
2023-04-18T06:03:30.891Z,17.10
2023-04-18T06:08:33.316Z,16.70
2023-04-18T06:13:37.385Z,16.40
2023-04-18T06:18:39.631Z,15.60
2023-04-18T06:23:41.682Z,15.00
2023-04-18T06:28:43.825Z,15.20
2023-04-18T06:33:45.629Z,15.10
2023-04-18T06:38:47.731Z,14.50
2023-04-18T06:44:02.086Z,14.60
2023-04-18T06:49:06.119Z,15.00
2023-04-18T06:54:08.091Z,13.50
2023-04-18T06:59:10.352Z,14.50
2023-04-18T07:04:12.643Z,14.00
2023-04-18T07:09:14.916Z,12.20
2023-04-18T07:14:17.008Z,11.80
2023-04-18T07:19:19.267Z,11.90
2023-04-18T07:24:23.570Z,11.50
2023-04-18T07:29:25.632Z,12.00
2023-04-18T07:34:30.005Z,12.50
2023-04-18T07:39:35.962Z,13.10
2023-04-18T07:44:37.964Z,13.30
2023-04-18T07:49:40.101Z,13.20
2023-04-18T07:54:41.987Z,13.90
2023-04-18T07:59:44.054Z,13.20
2023-04-18T08:04:47.480Z,11.40
2023-04-18T08:09:49.678Z,11.10
2023-04-18T08:14:51.554Z,9.90
2023-04-18T08:19:53.556Z,10.70
2023-04-18T08:25:04.288Z,10.10
2023-04-18T08:30:09.850Z,11.30
2023-04-18T08:35:11.846Z,11.10
2023-04-18T08:40:14.622Z,10.80
2023-04-18T08:45:18.691Z,10.20
2023-04-18T08:50:21.634Z,9.60
2023-04-18T08:55:23.630Z,10.30
2023-04-18T09:00:27.289Z,10.20
2023-04-18T09:05:29.838Z,10.30
2023-04-18T09:10:33.913Z,9.20
2023-04-18T09:15:35.864Z,8.90
2023-04-18T09:20:43.828Z,8.90
2023-04-18T09:25:48.140Z,7.90
2023-04-18T09:30:54.389Z,9.10
2023-04-18T09:35:57.339Z,10.30
2023-04-18T09:41:11.738Z,8.30
2023-04-18T09:46:14.650Z,7.70
2023-04-18T09:51:18.740Z,7.90
2023-04-18T09:56:32.722Z,7.50
2023-04-18T10:01:35.880Z,8.00
2023-04-18T10:06:39.902Z,8.30
2023-04-18T10:11:42.366Z,8.30
2023-04-18T10:16:49.958Z,8.80
2023-04-18T10:21:58.459Z,7.20
2023-04-18T10:27:00.328Z,7.20
2023-04-18T10:32:07.195Z,8.00
2023-04-18T10:37:09.461Z,6.60
2023-04-18T10:42:11.617Z,6.50
2023-04-18T10:47:19.824Z,6.30
2023-04-18T10:52:22.022Z,6.20
2023-04-18T10:57:24.028Z,6.20
2023-04-18T11:02:30.158Z,5.80
2023-04-18T11:07:36.992Z,5.90
2023-04-18T11:12:40.830Z,6.40
2023-04-18T11:17:44.207Z,6.60
2023-04-18T11:22:51.456Z,6.50
2023-04-18T11:27:55.905Z,5.90
2023-04-18T11:32:58.043Z,5.40
2023-04-18T11:38:00.936Z,5.70
2023-04-18T11:43:05.876Z,4.80
2023-04-18T11:48:07.765Z,4.70
2023-04-18T11:53:10.568Z,4.90
2023-04-18T11:58:12.776Z,4.80
2023-04-18T12:03:17.089Z,4.60
2023-04-18T12:08:20.643Z,4.60
2023-04-18T12:13:27.497Z,4.50
2023-04-18T12:18:30.021Z,4.30
2023-04-18T12:23:35.978Z,5.60
2023-04-18T12:28:38.809Z,4.60
2023-04-18T12:33:41.234Z,4.80
2023-04-18T12:38:43.291Z,5.20
2023-04-18T12:43:45.434Z,5.10
2023-04-18T12:48:47.519Z,4.80
2023-04-18T12:53:49.718Z,4.70
2023-04-18T12:58:51.834Z,4.20
2023-04-18T13:04:08.325Z,4.50
2023-04-18T13:14:16.267Z,3.80
2023-04-18T13:19:18.090Z,4.80
2023-04-18T13:24:20.401Z,4.80
2023-04-18T13:29:22.689Z,4.40
2023-04-18T13:34:24.775Z,3.80
2023-04-18T13:39:26.596Z,3.70
2023-04-18T13:44:29.501Z,3.90
2023-04-18T13:49:32.678Z,4.00
2023-04-18T13:54:35.456Z,4.30
2023-04-18T13:59:42.438Z,3.70
2023-04-18T14:04:44.931Z,4.30
2023-04-18T14:09:48.391Z,5.10
2023-04-18T14:14:50.432Z,5.30
2023-04-18T14:20:11.696Z,5.30
2023-04-18T14:25:14.332Z,5.30
2023-04-18T14:30:16.749Z,4.70
2023-04-18T14:35:19.042Z,4.10
2023-04-18T14:40:22.798Z,5.20
2023-04-18T14:45:25.680Z,4.30
2023-04-18T14:50:27.810Z,4.30
2023-04-18T14:55:30.179Z,5.20
2023-04-18T15:00:34.011Z,5.10
2023-04-18T15:05:39.175Z,4.90
2023-04-18T15:10:46.561Z,5.20
2023-04-18T15:15:56.908Z,5.20
2023-04-18T15:20:59.723Z,4.80
2023-04-18T15:26:01.887Z,4.50
2023-04-18T15:31:06.173Z,4.70
2023-04-18T15:36:09.213Z,4.40
2023-04-18T15:41:11.281Z,4.40
2023-04-18T15:46:14.214Z,5.60
2023-04-18T15:51:16.098Z,4.90
2023-04-18T15:56:18.371Z,5.60
2023-04-18T16:01:20.956Z,5.10
2023-04-18T16:06:23.503Z,5.80
2023-04-18T16:11:29.039Z,5.30
2023-04-18T16:16:31.092Z,6.30
2023-04-18T16:21:33.108Z,5.90
2023-04-18T16:26:35.166Z,6.30
2023-04-18T16:31:37.335Z,7.00
2023-04-18T16:36:39.801Z,6.70
2023-04-18T16:41:41.816Z,8.40
2023-04-18T16:46:44.409Z,8.80
2023-04-18T16:51:46.707Z,8.20
2023-04-18T16:56:49.216Z,8.60
2023-04-18T17:01:51.629Z,9.70
2023-04-18T17:06:53.789Z,9.10
2023-04-18T17:11:55.724Z,10.30
2023-04-18T17:16:57.866Z,9.70
2023-04-18T17:22:00.389Z,11.60
2023-04-18T17:27:02.536Z,9.80
2023-04-18T17:32:05.210Z,10.60
2023-04-18T17:37:07.481Z,11.70
2023-04-18T17:42:09.709Z,12.20
2023-04-18T17:47:11.935Z,11.70
2023-04-18T17:52:14.024Z,15.40
2023-04-18T17:57:16.723Z,13.00
2023-04-18T18:02:19.409Z,11.70
2023-04-18T18:07:21.533Z,12.60
2023-04-18T18:12:23.428Z,12.40
2023-04-18T18:17:25.526Z,12.70
2023-04-18T18:22:28.270Z,9.60
2023-04-18T18:27:30.263Z,8.20
2023-04-18T18:32:32.472Z,8.20
2023-04-18T18:37:34.554Z,8.60
2023-04-18T18:42:36.746Z,9.50
2023-04-18T18:47:40.011Z,8.60
2023-04-18T18:52:43.250Z,8.50
2023-04-18T18:57:45.539Z,7.50
2023-04-18T19:02:47.789Z,7.80
2023-04-18T19:07:51.490Z,8.20
2023-04-18T19:12:53.468Z,10.60
2023-04-18T19:17:59.118Z,9.50
2023-04-18T19:23:01.032Z,10.40
2023-04-18T19:28:06.972Z,11.50
2023-04-18T19:33:09.685Z,12.30
2023-04-18T19:38:11.880Z,13.60
2023-04-18T19:43:13.872Z,14.30
2023-04-18T19:48:16.245Z,15.10
2023-04-18T19:53:19.223Z,15.20
2023-04-18T19:58:45.113Z,15.10
2023-04-18T20:03:48.805Z,15.60
2023-04-18T20:08:51.315Z,14.70
2023-04-18T20:13:56.769Z,15.70
2023-04-18T20:18:58.857Z,15.00
2023-04-18T20:24:01.535Z,13.80
2023-04-18T20:29:04.024Z,15.00
2023-04-18T20:34:06.993Z,14.90
2023-04-18T20:39:09.490Z,14.40
2023-04-18T20:44:13.851Z,13.90
2023-04-18T20:49:16.557Z,15.20
2023-04-18T20:54:18.849Z,14.60
2023-04-18T20:59:21.490Z,15.10
2023-04-18T21:04:23.934Z,15.80
2023-04-18T21:09:26.688Z,15.70
2023-04-18T21:14:36.058Z,18.40
2023-04-18T21:19:38.213Z,18.80
2023-04-18T21:24:40.667Z,18.50
2023-04-18T21:29:42.921Z,18.50
2023-04-18T21:34:44.986Z,17.80
2023-04-18T21:39:47.237Z,18.20
2023-04-18T21:44:49.637Z,18.60
2023-04-18T21:49:56.679Z,17.50
2023-04-18T21:54:59.962Z,17.20
2023-04-18T22:00:02.440Z,17.80
2023-04-18T22:05:13.389Z,19.10
2023-04-18T22:10:16.556Z,18.60
2023-04-18T22:15:18.359Z,17.00
2023-04-18T22:20:21.554Z,19.40
2023-04-18T22:25:23.341Z,19.20
2023-04-18T22:30:25.575Z,19.40
2023-04-18T22:35:27.945Z,19.70
2023-04-18T22:40:29.991Z,19.90
2023-04-18T22:45:33.794Z,20.60
2023-04-18T22:50:37.913Z,22.90
2023-04-18T22:55:44.352Z,23.90
2023-04-18T23:00:46.824Z,22.30
2023-04-18T23:05:48.869Z,23.50
2023-04-18T23:10:53.206Z,24.80
2023-04-18T23:16:01.403Z,25.50
2023-04-18T23:21:03.700Z,24.90
2023-04-18T23:26:13.301Z,25.60
2023-04-18T23:31:15.625Z,26.60
2023-04-18T23:36:17.758Z,26.00
2023-04-18T23:41:20.422Z,24.80
2023-04-18T23:46:22.884Z,25.70
2023-04-18T23:51:27.777Z,26.10
2023-04-18T23:56:29.803Z,25.90
